Selkirk, United Kingdom
Current Conditions -  °F | °C
As of 6:50 PM on Wednesday 26 Nov 2014 (Local Time) from EGPH Reporting Station
Overcast Overcast  
Wind Chill: 43°   Ceiling: 700
Heat Index: 43°   Visibility: 4mi
Dew Point: 43°   Wind: 0mph
Humidity: 100%   Direction: NA
Pressure: 29.85"   Gusts: NA
Location:  55.55°N, 2.84°W
Report Text: EGPH 261850Z 00000KT 7000 OVC007 06/06 Q1011
Loading
Personal Weather Stations






























Interactive Weather Map New forecast layout! Learn more

10-Day Weather Forecast

Advertisements
Track Severe Weather on mobile